createdAt,value
2024-02-04T00:02:00.075Z,13.30
2024-02-04T00:04:27.124Z,13.20
2024-02-04T00:06:54.131Z,13.30
2024-02-04T00:09:20.991Z,13.20
2024-02-04T00:11:47.868Z,13.20
2024-02-04T00:14:14.952Z,13.30
2024-02-04T00:16:41.862Z,13.20
2024-02-04T00:19:10.133Z,13.20
2024-02-04T00:21:37.767Z,13.20
2024-02-04T00:24:04.867Z,13.20
2024-02-04T00:26:31.790Z,13.20
2024-02-04T00:28:58.719Z,13.20
2024-02-04T00:31:25.736Z,13.20
2024-02-04T00:33:52.739Z,13.10
2024-02-04T00:36:20.496Z,13.10
2024-02-04T00:38:48.006Z,13.10
2024-02-04T00:41:15.274Z,13.10
2024-02-04T00:43:42.100Z,13.10
2024-02-04T00:46:11.882Z,13.00
2024-02-04T00:48:39.069Z,13.00
2024-02-04T00:51:06.038Z,13.00
2024-02-04T00:53:35.396Z,12.90
2024-02-04T00:56:04.145Z,12.90
2024-02-04T00:58:31.266Z,12.80
2024-02-04T01:00:58.657Z,12.80
2024-02-04T01:03:25.847Z,12.80
2024-02-04T01:05:52.939Z,12.80
2024-02-04T01:08:19.962Z,12.80
2024-02-04T01:10:47.036Z,12.80
2024-02-04T01:13:14.104Z,12.80
2024-02-04T01:15:41.169Z,12.80
2024-02-04T01:18:08.077Z,12.80
2024-02-04T01:20:34.977Z,12.80
2024-02-04T01:23:01.925Z,12.80
2024-02-04T01:25:28.809Z,12.80
2024-02-04T01:27:55.802Z,12.80
2024-02-04T01:30:22.801Z,12.80
2024-02-04T01:32:49.848Z,12.80
2024-02-04T01:35:17.059Z,12.80
2024-02-04T01:37:49.835Z,12.70
2024-02-04T01:40:17.049Z,12.70
2024-02-04T01:42:44.593Z,12.70
2024-02-04T01:45:11.726Z,12.70
2024-02-04T01:47:38.938Z,12.60
2024-02-04T01:50:06.796Z,12.60
2024-02-04T01:52:37.172Z,12.60
2024-02-04T01:55:06.292Z,12.60
2024-02-04T01:57:34.254Z,12.60
2024-02-04T02:00:01.195Z,12.50
2024-02-04T02:02:28.304Z,12.50
2024-02-04T02:04:55.527Z,12.50
2024-02-04T02:07:23.134Z,12.50
2024-02-04T02:09:50.330Z,12.50
2024-02-04T02:12:34.861Z,12.50
2024-02-04T02:15:16.983Z,12.60
2024-02-04T02:17:54.142Z,12.60
2024-02-04T02:20:26.830Z,12.60
2024-02-04T02:23:15.425Z,12.60
2024-02-04T02:25:42.531Z,12.60
2024-02-04T02:28:09.626Z,12.60
2024-02-04T02:30:36.641Z,12.60
2024-02-04T02:33:06.766Z,12.60
2024-02-04T02:35:33.926Z,12.50
2024-02-04T02:38:20.877Z,12.50
2024-02-04T02:40:52.752Z,12.50
2024-02-04T02:43:20.291Z,12.60
2024-02-04T02:45:47.600Z,12.70
2024-02-04T02:48:15.205Z,12.70
2024-02-04T02:50:42.305Z,12.70
2024-02-04T02:53:09.279Z,12.70
2024-02-04T02:55:36.201Z,12.70
2024-02-04T02:58:03.222Z,12.70
2024-02-04T03:00:30.254Z,12.80
2024-02-04T03:02:57.384Z,12.70
2024-02-04T03:05:25.608Z,12.70
2024-02-04T03:07:52.597Z,12.70
2024-02-04T03:10:19.560Z,12.80
2024-02-04T03:12:46.488Z,12.80
2024-02-04T03:15:13.480Z,12.80
2024-02-04T03:17:40.409Z,12.80
2024-02-04T03:20:07.913Z,12.80
2024-02-04T03:22:34.959Z,12.80
2024-02-04T03:25:02.123Z,12.80
2024-02-04T03:27:29.199Z,12.80
2024-02-04T03:29:56.119Z,12.80
2024-02-04T03:32:22.982Z,12.80
2024-02-04T03:34:49.891Z,12.80
2024-02-04T03:37:16.887Z,12.80
2024-02-04T03:39:43.854Z,12.70
2024-02-04T03:42:10.758Z,12.80
2024-02-04T03:44:37.670Z,12.80
2024-02-04T03:47:05.172Z,12.80
2024-02-04T03:49:32.594Z,12.80
2024-02-04T03:51:59.667Z,12.90
2024-02-04T03:54:26.901Z,12.80
2024-02-04T03:56:53.869Z,12.80
2024-02-04T03:59:20.975Z,12.80
2024-02-04T04:01:52.079Z,12.80
2024-02-04T04:04:19.130Z,12.80
2024-02-04T04:06:46.956Z,12.80
2024-02-04T04:09:14.023Z,12.90
2024-02-04T04:11:41.091Z,12.90
2024-02-04T04:14:08.107Z,12.90
2024-02-04T04:16:35.080Z,12.90
2024-02-04T04:19:02.295Z,12.90
2024-02-04T04:21:29.384Z,12.90
2024-02-04T04:23:56.330Z,12.90
2024-02-04T04:26:23.201Z,12.90
2024-02-04T04:28:50.045Z,12.90
2024-02-04T04:31:16.973Z,13.00
2024-02-04T04:33:44.126Z,12.90
2024-02-04T04:36:11.196Z,13.00
2024-02-04T04:38:38.065Z,12.90
2024-02-04T04:41:05.189Z,12.90
2024-02-04T04:43:32.095Z,12.90
2024-02-04T04:45:58.976Z,12.90
2024-02-04T04:48:25.930Z,12.90
2024-02-04T04:50:52.932Z,12.90
2024-02-04T04:53:19.947Z,13.00
2024-02-04T04:55:46.879Z,13.00
2024-02-04T04:58:13.788Z,13.00
2024-02-04T05:00:41.033Z,13.00
2024-02-04T05:03:08.100Z,13.00
2024-02-04T05:05:35.000Z,13.00
2024-02-04T05:08:02.113Z,13.00
2024-02-04T05:10:29.100Z,13.00
2024-02-04T05:12:56.053Z,13.00
2024-02-04T05:15:23.249Z,13.00
2024-02-04T05:17:50.344Z,13.00
2024-02-04T05:20:17.628Z,13.00
2024-02-04T05:22:44.542Z,13.00
2024-02-04T05:25:11.549Z,13.00
2024-02-04T05:27:42.385Z,13.00
2024-02-04T05:30:10.206Z,13.10
2024-02-04T05:32:37.252Z,13.00
2024-02-04T05:35:04.911Z,13.00
2024-02-04T05:37:32.000Z,13.10
2024-02-04T05:39:59.018Z,13.10
2024-02-04T05:42:26.245Z,13.10
2024-02-04T05:44:53.154Z,13.10
2024-02-04T05:47:20.139Z,13.10
2024-02-04T05:49:47.111Z,13.10
2024-02-04T05:52:14.669Z,13.10
2024-02-04T05:54:41.796Z,13.10
2024-02-04T05:57:08.804Z,13.10
2024-02-04T05:59:35.906Z,13.10
2024-02-04T06:02:03.001Z,13.10
2024-02-04T06:04:30.697Z,13.10
2024-02-04T06:06:57.794Z,13.10
2024-02-04T06:09:24.760Z,13.10
2024-02-04T06:11:51.735Z,13.10
2024-02-04T06:14:18.619Z,13.10
2024-02-04T06:16:45.473Z,13.10
2024-02-04T06:19:14.694Z,13.10
2024-02-04T06:21:41.810Z,13.10
2024-02-04T06:24:08.997Z,13.10
2024-02-04T06:26:39.862Z,13.10
2024-02-04T06:29:06.860Z,13.10
2024-02-04T06:31:33.754Z,13.10
2024-02-04T06:34:00.717Z,13.10
2024-02-04T06:36:27.755Z,13.10
2024-02-04T06:38:54.832Z,13.10
2024-02-04T06:41:21.840Z,13.10
2024-02-04T06:43:48.777Z,13.10
2024-02-04T06:46:24.429Z,13.10
2024-02-04T06:48:51.424Z,13.10
2024-02-04T06:51:18.491Z,13.10
2024-02-04T06:53:45.378Z,13.10
2024-02-04T06:56:12.395Z,13.10
2024-02-04T06:58:40.110Z,13.10
2024-02-04T07:01:07.189Z,13.10
2024-02-04T07:03:34.490Z,13.10
2024-02-04T07:06:02.046Z,13.10
2024-02-04T07:08:28.941Z,13.10
2024-02-04T07:10:58.208Z,13.10
2024-02-04T07:13:27.248Z,13.10
2024-02-04T07:15:55.781Z,13.00
2024-02-04T07:18:23.388Z,13.00
2024-02-04T07:20:50.421Z,12.90
2024-02-04T07:23:17.363Z,13.00
2024-02-04T07:25:44.745Z,13.00
2024-02-04T07:28:11.675Z,12.90
2024-02-04T07:30:38.695Z,12.90
2024-02-04T07:33:06.079Z,12.90
2024-02-04T07:35:33.552Z,12.80
2024-02-04T07:38:00.481Z,12.90
2024-02-04T07:40:29.013Z,12.80
2024-02-04T07:42:56.602Z,12.80
2024-02-04T07:45:23.615Z,12.90
2024-02-04T07:47:50.603Z,12.80
2024-02-04T07:50:17.845Z,12.90
2024-02-04T07:52:45.456Z,12.90
2024-02-04T07:55:12.780Z,13.00
2024-02-04T07:57:40.042Z,13.00
2024-02-04T08:00:08.035Z,13.00
2024-02-04T08:02:34.895Z,13.00
2024-02-04T08:05:01.976Z,13.00
2024-02-04T08:07:29.062Z,13.00
2024-02-04T08:09:56.197Z,12.90
2024-02-04T08:12:23.317Z,12.90
2024-02-04T08:14:50.425Z,12.90
2024-02-04T08:17:17.438Z,12.90
2024-02-04T08:19:44.685Z,12.90
2024-02-04T08:22:11.805Z,13.00
2024-02-04T08:24:38.833Z,13.00
2024-02-04T08:27:06.118Z,13.00
2024-02-04T08:29:33.110Z,13.00
2024-02-04T08:32:00.023Z,13.10
2024-02-04T08:34:27.411Z,13.10
2024-02-04T08:36:55.128Z,13.10
2024-02-04T08:39:22.072Z,13.10
2024-02-04T08:41:49.007Z,13.10
2024-02-04T08:44:23.024Z,13.10
2024-02-04T08:46:59.581Z,13.10
2024-02-04T08:49:26.703Z,13.10
2024-02-04T08:51:53.878Z,13.10
2024-02-04T08:54:21.208Z,13.20
2024-02-04T08:56:48.145Z,13.20
2024-02-04T08:59:15.100Z,13.10
2024-02-04T09:01:42.182Z,13.20
2024-02-04T09:04:09.565Z,13.20
2024-02-04T09:06:36.616Z,13.20
2024-02-04T09:09:03.777Z,13.20
2024-02-04T09:11:30.894Z,13.30
2024-02-04T09:13:57.769Z,13.30
2024-02-04T09:16:24.862Z,13.30
2024-02-04T09:18:52.055Z,13.30
2024-02-04T09:21:19.303Z,13.30
2024-02-04T09:23:46.427Z,13.30
2024-02-04T09:26:16.196Z,13.40
2024-02-04T09:28:45.013Z,13.40
2024-02-04T09:31:12.049Z,13.40
2024-02-04T09:33:39.466Z,13.40
2024-02-04T09:36:07.394Z,13.50
2024-02-04T09:38:34.762Z,13.50
2024-02-04T09:41:05.096Z,13.50
2024-02-04T09:43:34.340Z,13.50
2024-02-04T09:46:02.450Z,13.50
2024-02-04T09:48:34.166Z,13.50
2024-02-04T09:51:01.711Z,13.50
2024-02-04T09:53:37.684Z,13.60
2024-02-04T09:56:08.165Z,13.60
2024-02-04T09:58:35.824Z,13.50
2024-02-04T10:01:04.088Z,13.60
2024-02-04T10:03:31.586Z,13.60
2024-02-04T10:05:58.729Z,13.60
2024-02-04T10:08:26.379Z,13.60
2024-02-04T10:10:55.430Z,13.60
2024-02-04T10:13:23.812Z,13.60
2024-02-04T10:15:50.964Z,13.60
2024-02-04T10:18:18.842Z,13.70
2024-02-04T10:20:45.855Z,13.70
2024-02-04T10:23:12.757Z,13.70
2024-02-04T10:25:40.291Z,13.70
2024-02-04T10:28:07.487Z,13.70
2024-02-04T10:30:35.453Z,13.70
2024-02-04T10:33:02.486Z,13.80
2024-02-04T10:35:29.383Z,13.90
2024-02-04T10:37:56.312Z,13.90
2024-02-04T10:40:23.351Z,13.90
2024-02-04T10:42:52.073Z,14.00
2024-02-04T10:45:20.158Z,14.00
2024-02-04T10:47:56.923Z,14.00
2024-02-04T10:50:26.441Z,14.10
2024-02-04T10:52:54.246Z,14.10
2024-02-04T10:55:27.366Z,14.00
2024-02-04T10:57:54.241Z,14.10
2024-02-04T11:00:22.078Z,14.10
2024-02-04T11:02:50.526Z,14.00
2024-02-04T11:05:18.691Z,14.00
2024-02-04T11:07:46.163Z,14.10
2024-02-04T11:10:13.865Z,14.10
2024-02-04T11:12:42.690Z,14.10
2024-02-04T11:15:14.759Z,14.10
2024-02-04T11:17:44.715Z,14.20
2024-02-04T11:20:37.286Z,14.20
2024-02-04T11:23:19.199Z,14.20
2024-02-04T11:25:49.974Z,14.20
2024-02-04T11:28:17.809Z,14.20
2024-02-04T11:30:46.200Z,14.20
2024-02-04T11:33:14.823Z,14.10
2024-02-04T11:35:41.981Z,14.10
2024-02-04T11:38:09.553Z,14.10
2024-02-04T11:40:38.568Z,14.10
2024-02-04T11:43:13.239Z,14.10
2024-02-04T11:45:44.917Z,14.10
2024-02-04T11:48:32.102Z,14.20
2024-02-04T11:51:01.398Z,14.20
2024-02-04T11:53:33.442Z,14.20
2024-02-04T11:56:02.342Z,14.20
2024-02-04T11:58:30.513Z,14.20
2024-02-04T12:01:01.206Z,14.20
2024-02-04T12:03:35.685Z,14.20
2024-02-04T12:06:03.533Z,14.10
2024-02-04T12:08:33.454Z,14.20
2024-02-04T12:11:02.447Z,14.10
2024-02-04T12:13:30.495Z,14.20
2024-02-04T12:15:57.575Z,14.20
2024-02-04T12:18:24.720Z,14.30
2024-02-04T12:20:52.573Z,14.20
2024-02-04T12:23:20.415Z,14.30
2024-02-04T12:25:47.611Z,14.30
2024-02-04T12:28:15.524Z,14.30
2024-02-04T12:30:42.642Z,14.20
2024-02-04T12:33:10.490Z,14.30
2024-02-04T12:35:37.664Z,14.20
2024-02-04T12:38:04.928Z,14.30
2024-02-04T12:40:32.653Z,14.30
2024-02-04T12:43:06.455Z,14.40
2024-02-04T12:45:34.592Z,14.40
2024-02-04T12:48:03.950Z,14.40
2024-02-04T12:50:31.056Z,14.40
2024-02-04T12:53:07.962Z,14.50
2024-02-04T12:55:37.190Z,14.50
2024-02-04T12:58:16.114Z,14.50
2024-02-04T13:00:43.298Z,14.50
2024-02-04T13:03:10.846Z,14.50
2024-02-04T13:05:40.978Z,14.40
2024-02-04T13:08:09.273Z,14.40
2024-02-04T13:10:37.820Z,14.40
2024-02-04T13:13:07.882Z,14.40
2024-02-04T13:15:47.063Z,14.40
2024-02-04T13:18:16.949Z,14.40
2024-02-04T13:20:44.764Z,14.50
2024-02-04T13:23:11.799Z,14.40
2024-02-04T13:25:39.262Z,14.40
2024-02-04T13:28:06.675Z,14.50
2024-02-04T13:30:34.562Z,14.40
2024-02-04T13:33:03.582Z,14.50
2024-02-04T13:35:31.543Z,14.50
2024-02-04T13:37:59.127Z,14.50
2024-02-04T13:40:26.334Z,14.50
2024-02-04T13:42:53.388Z,14.60
2024-02-04T13:45:21.159Z,14.60
2024-02-04T13:47:48.191Z,14.50
2024-02-04T13:50:16.137Z,14.60
2024-02-04T13:52:43.199Z,14.60
2024-02-04T13:55:10.293Z,14.50
2024-02-04T13:57:37.770Z,14.60
2024-02-04T14:00:09.656Z,14.50
2024-02-04T14:02:36.725Z,14.50
2024-02-04T14:05:04.695Z,14.60
2024-02-04T14:07:31.790Z,14.60
2024-02-04T14:09:58.817Z,14.60
2024-02-04T14:12:25.816Z,14.60
2024-02-04T14:14:52.765Z,14.50
2024-02-04T14:17:20.570Z,14.60
2024-02-04T14:19:50.758Z,14.60
2024-02-04T14:22:21.710Z,14.60
2024-02-04T14:24:48.749Z,14.60
2024-02-04T14:27:15.779Z,14.60
2024-02-04T14:29:42.822Z,14.50
2024-02-04T14:32:09.883Z,14.50
2024-02-04T14:34:37.186Z,14.50
2024-02-04T14:37:04.508Z,14.40
2024-02-04T14:39:33.049Z,14.50
2024-02-04T14:42:00.048Z,14.50
2024-02-04T14:44:27.079Z,14.50
2024-02-04T14:46:54.117Z,14.50
2024-02-04T14:49:21.229Z,14.50
2024-02-04T14:51:48.609Z,14.50
2024-02-04T14:54:15.589Z,14.60
2024-02-04T14:56:43.521Z,14.60
2024-02-04T14:59:20.896Z,14.60
2024-02-04T15:01:51.532Z,14.60
2024-02-04T15:04:19.397Z,14.60
2024-02-04T15:06:47.211Z,14.60
2024-02-04T15:09:16.190Z,14.50
2024-02-04T15:11:43.868Z,14.50
2024-02-04T15:14:11.451Z,14.40
2024-02-04T15:16:41.409Z,14.40
2024-02-04T15:19:09.433Z,14.40
2024-02-04T15:21:37.312Z,14.40
2024-02-04T15:24:06.803Z,14.50
2024-02-04T15:26:35.599Z,14.60
2024-02-04T15:29:05.062Z,14.60
2024-02-04T15:31:34.976Z,14.50
2024-02-04T15:34:04.990Z,14.50
2024-02-04T15:36:33.928Z,14.50
2024-02-04T15:39:01.101Z,14.50
2024-02-04T15:41:29.174Z,14.50
2024-02-04T15:43:56.112Z,14.50
2024-02-04T15:46:24.893Z,14.50
2024-02-04T15:48:54.671Z,14.50
2024-02-04T15:51:22.040Z,14.50
2024-02-04T15:53:49.328Z,14.50
2024-02-04T15:56:21.826Z,14.50
2024-02-04T15:59:02.017Z,14.50
2024-02-04T16:01:30.909Z,14.50
2024-02-04T16:03:58.285Z,14.50
2024-02-04T16:06:26.453Z,14.60
2024-02-04T16:08:53.577Z,14.60
2024-02-04T16:11:24.908Z,14.60
2024-02-04T16:13:53.044Z,14.60
2024-02-04T16:16:28.306Z,14.50
2024-02-04T16:18:56.041Z,14.50
2024-02-04T16:21:22.905Z,14.50
2024-02-04T16:23:49.934Z,14.50
2024-02-04T16:26:16.878Z,14.50
2024-02-04T16:28:43.764Z,14.50
2024-02-04T16:31:10.827Z,14.50
2024-02-04T16:33:37.893Z,14.50
2024-02-04T16:36:06.605Z,14.50
2024-02-04T16:38:35.254Z,14.50
2024-02-04T16:41:02.394Z,14.50
2024-02-04T16:43:29.450Z,14.40
2024-02-04T16:45:56.494Z,14.40
2024-02-04T16:48:23.453Z,14.40
2024-02-04T16:50:51.701Z,14.30
2024-02-04T16:53:21.086Z,14.30
2024-02-04T16:55:48.579Z,14.30
2024-02-04T16:58:15.487Z,14.30
2024-02-04T17:00:45.049Z,14.20
2024-02-04T17:03:12.708Z,14.30
2024-02-04T17:05:51.046Z,14.20
2024-02-04T17:08:24.619Z,14.20
2024-02-04T17:10:53.291Z,14.20
2024-02-04T17:13:21.764Z,14.20
2024-02-04T17:15:49.897Z,14.20
2024-02-04T17:18:32.161Z,14.10
2024-02-04T17:21:03.613Z,14.10
2024-02-04T17:23:34.936Z,14.10
2024-02-04T17:26:02.598Z,14.10
2024-02-04T17:28:29.888Z,14.00
2024-02-04T17:30:57.687Z,14.00
2024-02-04T17:33:25.217Z,14.10
2024-02-04T17:35:52.580Z,14.00
2024-02-04T17:38:20.201Z,14.00
2024-02-04T17:40:47.221Z,14.00
2024-02-04T17:43:14.203Z,14.00
2024-02-04T17:45:41.486Z,14.00
2024-02-04T17:48:09.832Z,14.00
2024-02-04T17:50:36.765Z,14.00
2024-02-04T17:53:05.003Z,14.00
2024-02-04T17:55:31.902Z,14.00
2024-02-04T17:58:01.315Z,14.00
2024-02-04T18:00:28.536Z,14.00
2024-02-04T18:02:55.374Z,14.00
2024-02-04T18:05:22.465Z,14.00
2024-02-04T18:07:50.264Z,14.00
2024-02-04T18:10:17.500Z,14.00
2024-02-04T18:12:44.456Z,14.00
2024-02-04T18:15:13.554Z,14.00
2024-02-04T18:17:44.113Z,14.00
2024-02-04T18:20:12.863Z,14.00
2024-02-04T18:22:39.743Z,13.90
2024-02-04T18:25:12.446Z,14.00
2024-02-04T18:27:42.345Z,13.90
2024-02-04T18:30:10.288Z,13.90
2024-02-04T18:32:37.209Z,13.90
2024-02-04T18:35:04.648Z,13.80
2024-02-04T18:37:31.613Z,13.80
2024-02-04T18:40:00.352Z,13.80
2024-02-04T18:42:27.623Z,13.80
2024-02-04T18:44:55.772Z,13.80
2024-02-04T18:47:22.799Z,13.80
2024-02-04T18:49:50.211Z,13.80
2024-02-04T18:52:17.922Z,13.80
2024-02-04T18:54:44.999Z,13.80
2024-02-04T18:57:11.836Z,13.80
2024-02-04T18:59:38.794Z,13.80
2024-02-04T19:02:05.818Z,13.80
2024-02-04T19:04:32.904Z,13.80
2024-02-04T19:07:02.465Z,13.80
2024-02-04T19:09:29.841Z,13.80
2024-02-04T19:11:58.827Z,13.80
2024-02-04T19:14:25.890Z,13.80
2024-02-04T19:16:53.521Z,13.70
2024-02-04T19:19:20.775Z,13.70
2024-02-04T19:21:49.658Z,13.70
2024-02-04T19:24:17.362Z,13.80
2024-02-04T19:26:45.221Z,13.80
2024-02-04T19:29:12.426Z,13.80
2024-02-04T19:31:39.971Z,13.70
2024-02-04T19:34:06.906Z,13.80
2024-02-04T19:36:33.804Z,13.80
2024-02-04T19:39:00.612Z,13.80
2024-02-04T19:41:27.559Z,13.90
2024-02-04T19:43:54.664Z,13.90
2024-02-04T19:46:21.603Z,13.90
2024-02-04T19:48:48.477Z,13.90
2024-02-04T19:51:15.691Z,13.90
2024-02-04T19:53:42.595Z,13.90
2024-02-04T19:56:09.478Z,13.90
2024-02-04T19:58:36.323Z,13.80
2024-02-04T20:01:03.926Z,13.80
2024-02-04T20:03:31.797Z,13.80
2024-02-04T20:05:58.881Z,13.80
2024-02-04T20:08:25.788Z,13.70
2024-02-04T20:10:52.672Z,13.70
2024-02-04T20:13:19.692Z,13.70
2024-02-04T20:15:47.095Z,13.70
2024-02-04T20:18:15.002Z,13.60
2024-02-04T20:20:41.956Z,13.60
2024-02-04T20:23:08.801Z,13.60
2024-02-04T20:25:35.732Z,13.60
2024-02-04T20:28:02.616Z,13.60
2024-02-04T20:30:30.430Z,13.60
2024-02-04T20:32:58.399Z,13.60
2024-02-04T20:35:27.882Z,13.60
2024-02-04T20:37:59.172Z,13.50
2024-02-04T20:40:27.083Z,13.50
2024-02-04T20:42:54.066Z,13.50
2024-02-04T20:45:21.378Z,13.40
2024-02-04T20:47:50.486Z,13.40
2024-02-04T20:50:18.108Z,13.40
2024-02-04T20:52:45.381Z,13.40
2024-02-04T20:55:12.391Z,13.40
2024-02-04T20:57:40.332Z,13.40
2024-02-04T21:00:08.548Z,13.30
2024-02-04T21:02:35.979Z,13.20
2024-02-04T21:05:03.224Z,13.30
2024-02-04T21:07:30.367Z,13.30
2024-02-04T21:10:06.599Z,13.20
2024-02-04T21:12:33.646Z,13.20
2024-02-04T21:15:04.015Z,13.20
2024-02-04T21:17:30.934Z,13.20
2024-02-04T21:19:57.966Z,13.20
2024-02-04T21:22:24.880Z,13.20
2024-02-04T21:24:52.133Z,13.10
2024-02-04T21:27:19.546Z,13.20
2024-02-04T21:29:46.502Z,13.20
2024-02-04T21:32:13.366Z,13.20
2024-02-04T21:34:40.525Z,13.20
2024-02-04T21:37:07.647Z,13.10
2024-02-04T21:39:34.894Z,13.20
2024-02-04T21:42:02.757Z,13.20
2024-02-04T21:44:29.770Z,13.20
2024-02-04T21:46:57.045Z,13.20
2024-02-04T21:49:24.036Z,13.20
2024-02-04T21:51:52.079Z,13.20
2024-02-04T21:54:19.084Z,13.20
2024-02-04T21:56:46.188Z,13.40
2024-02-04T21:59:13.156Z,13.20
2024-02-04T22:01:40.195Z,13.20
2024-02-04T22:04:07.470Z,13.20
2024-02-04T22:06:34.543Z,13.20
2024-02-04T22:09:02.010Z,13.10
2024-02-04T22:11:30.058Z,13.20
2024-02-04T22:13:56.951Z,13.20
2024-02-04T22:16:24.698Z,13.20
2024-02-04T22:18:51.802Z,13.20
2024-02-04T22:21:20.773Z,13.30
2024-02-04T22:23:48.096Z,13.30
2024-02-04T22:26:15.252Z,13.30
2024-02-04T22:28:42.189Z,13.30
2024-02-04T22:31:09.812Z,13.40
2024-02-04T22:33:36.881Z,13.40
2024-02-04T22:36:05.298Z,13.40
2024-02-04T22:38:33.441Z,13.40
2024-02-04T22:41:00.524Z,13.40
2024-02-04T22:43:28.124Z,13.40
2024-02-04T22:45:55.164Z,13.40
2024-02-04T22:48:22.184Z,13.40
2024-02-04T22:50:49.092Z,13.50
2024-02-04T22:53:16.122Z,13.40
2024-02-04T22:55:43.124Z,13.40
2024-02-04T22:58:10.146Z,13.40
2024-02-04T23:00:39.885Z,13.30
2024-02-04T23:03:07.301Z,13.20
2024-02-04T23:05:34.319Z,13.20
2024-02-04T23:08:01.640Z,13.20
2024-02-04T23:10:30.641Z,13.20
2024-02-04T23:12:58.466Z,13.10
2024-02-04T23:15:25.564Z,13.10
2024-02-04T23:17:52.558Z,13.10
2024-02-04T23:20:21.529Z,13.20
2024-02-04T23:22:49.853Z,13.20
2024-02-04T23:25:17.207Z,13.20
2024-02-04T23:27:45.427Z,13.20
2024-02-04T23:30:13.040Z,13.30
2024-02-04T23:32:40.013Z,13.30
2024-02-04T23:35:07.315Z,13.30
2024-02-04T23:37:37.533Z,13.30
2024-02-04T23:40:05.018Z,13.30
2024-02-04T23:42:31.980Z,13.30
2024-02-04T23:44:58.935Z,13.30
2024-02-04T23:47:26.146Z,13.40
2024-02-04T23:49:53.445Z,13.40
2024-02-04T23:52:20.823Z,13.40
2024-02-04T23:54:47.830Z,13.40
2024-02-04T23:57:14.858Z,13.40
2024-02-04T23:59:42.039Z,13.40
